Celle, Germany

11:23 AM CEST on July 30, 2016 (GMT +0200)
Neues Land | | Change Station

Elev 141 ft 52.60 °N, 10.06 °E | Updated 8 minutes ago

Scattered Clouds
Scattered Clouds
70.2 °F
Feels Like 75 °F
N
1.9
Wind Variable Wind from SE
Gusts 6.8 mph

Today
High -- | Low -- °F
--% Chance of Precip.
Yesterday
High -- | Low -- °F
Precip. -- in
Pressure 29.86 in
Visibility 6.2 miles
Clouds Few 3000 ft
Scattered Clouds 5500 ft
Heat Index 75 °F
Dew Point 59 °F
Humidity 67%
Rainfall 0.00 in
Snow Depth Not available.
5:36 AM 9:14 PM
Waning Crescent, 14% visible
METAR EDDV 300920Z 23012KT 190V270 9999 FEW030 SCT055 20/13 Q1011 NOSIG
Pressure 29.86 in
Visibility 6.2 miles
Clouds Few 3000 ft
Scattered Clouds 5500 ft
Heat Index 75 °F
Dew Point 59 °F
Humidity 67%
Rainfall 0.00 in
Snow Depth Not available.
5:36 AM 9:14 PM
Waning Crescent, 14% visible
METAR EDDV 300920Z 23012KT 190V270 9999 FEW030 SCT055 20/13 Q1011 NOSIG

10-Day Weather Forecast

×

Almanac

Astronomy

Jul. 30, 2016 Rise Set
Actual Time
Civil Twilight
Nautical Twilight
Astronomical Twilight
Moon
Length of Visible Light
Length of Day
Tomorrow will be .
, % of the Moon is Illuminated

Today's Extremes

Country Highs Country Lows

Community

WunderPhotos

Upload Photos

1,928,528 photos uploaded!

WunderBlog® & News

Nearby

Air Quality

  Air Quality AQ Index Pollutant
Not available.

Snow Depth

Station Depth Elevation

Earthquake Activity

City Distance Mag. Time & Date
Minimum magnitude displayed is 2.5.

Coastal Water Temperatures

Place Temperature

Stations

Nearby Weather Stations

Station Location Temp. Windchill Dew Point Humidity Wind Precip. Elev Updated Type